Time;durP1;ratioP1;P1;durP2;ratioP2;P2;SDS_P1;SDS_P2;PMS_P1;PMS_P2;Temp;Humidity;BMP_temperature;BMP_pressure;BME280_temperature;BME280_humidity;BME280_pressure;Samples;Min_cycle;Max_cycle;Signal;HPM_P1;HPM_P2
2022/10/25 00:02:23;;;;;;;6.10;1.60;;;;;;;13.90;93.06;98833.00;6170147;23;20279;-56
2022/10/25 00:04:50;;;;;;;6.80;1.40;;;;;;;13.84;95.47;98836.31;6174545;23;20199;-57
2022/10/25 00:07:16;;;;;;;6.67;1.50;;;;;;;13.74;96.04;98836.50;6171295;23;20531;-54
2022/10/25 00:09:43;;;;;;;10.00;1.87;;;;;;;13.65;96.87;98830.44;6175361;23;20197;-56
2022/10/25 00:12:11;;;;;;;5.13;1.30;;;;;;;13.78;93.39;98848.28;6171460;23;20212;-58
2022/10/25 00:14:37;;;;;;;3.57;1.20;;;;;;;13.73;93.25;98842.72;6174042;23;20200;-55
2022/10/25 00:17:04;;;;;;;9.23;1.70;;;;;;;13.74;94.22;98847.00;6144025;23;20202;-54
2022/10/25 00:19:30;;;;;;;7.63;1.50;;;;;;;13.73;95.03;98834.84;6148366;23;20203;-56
2022/10/25 00:21:57;;;;;;;4.33;1.37;;;;;;;13.78;94.45;98843.03;6174318;23;20208;-59
2022/10/25 00:24:23;;;;;;;5.07;1.50;;;;;;;13.87;92.96;98849.94;6172081;23;20209;-55
2022/10/25 00:26:50;;;;;;;2.93;1.50;;;;;;;13.81;93.72;98844.50;6175706;23;20201;-55
2022/10/25 00:29:18;;;;;;;5.37;1.43;;;;;;;13.85;93.97;98835.31;6171993;23;20934;-55
2022/10/25 00:31:44;;;;;;;5.07;1.37;;;;;;;13.95;91.39;98840.41;6148622;23;20211;-55
2022/10/25 00:34:11;;;;;;;2.13;1.13;;;;;;;14.05;90.62;98834.94;6171354;23;20255;-55
2022/10/25 00:36:38;;;;;;;6.97;1.60;;;;;;;13.99;91.09;98842.50;6175901;23;20200;-54
2022/10/25 00:39:04;;;;;;;3.10;1.50;;;;;;;13.99;91.17;98842.50;6171996;23;20209;-54
2022/10/25 00:41:33;;;;;;;4.40;1.30;;;;;;;13.86;92.81;98834.34;6175685;23;20278;-53
2022/10/25 00:44:33;;;;;;;5.73;1.07;;;;;;;13.83;92.54;98832.03;6145232;23;20657;-55
2022/10/25 00:47:02;;;;;;;4.10;1.43;;;;;;;13.79;90.89;98842.06;6171810;23;20680;-55
2022/10/25 00:49:29;;;;;;;8.50;1.67;;;;;;;13.82;93.02;98827.78;6175348;23;20205;-53
2022/10/25 00:51:59;;;;;;;3.27;1.20;;;;;;;13.84;92.77;98837.13;6175483;23;20205;-55
2022/10/25 00:54:29;;;;;;;6.70;1.57;;;;;;;13.86;91.98;98827.28;6172539;23;20204;-56
2022/10/25 00:56:58;;;;;;;7.50;1.20;;;;;;;13.96;92.04;98837.59;6175687;23;20210;-53
2022/10/25 00:59:27;;;;;;;5.00;1.70;;;;;;;14.12;89.58;98838.53;6172592;23;20511;-55
2022/10/25 01:01:55;;;;;;;4.07;1.07;;;;;;;13.97;89.24;98835.81;6175443;23;20584;-53
2022/10/25 01:04:27;;;;;;;4.70;1.03;;;;;;;14.06;90.27;98844.47;6171243;23;20582;-54
2022/10/25 01:06:54;;;;;;;7.60;1.33;;;;;;;13.98;90.37;98840.88;6175299;23;20196;-54
2022/10/25 01:09:24;;;;;;;7.43;1.10;;;;;;;14.07;89.31;98838.22;6145706;23;20720;-56
2022/10/25 01:11:51;;;;;;;3.90;1.30;;;;;;;14.04;89.14;98834.16;6175554;23;20208;-56
2022/10/25 01:14:18;;;;;;;7.00;1.53;;;;;;;14.07;89.67;98841.69;6172005;23;20507;-53
2022/10/25 01:16:53;;;;;;;6.03;1.10;;;;;;;14.12;88.80;98846.41;6177547;23;20206;-56
2022/10/25 01:19:43;;;;;;;6.83;1.77;;;;;;;14.13;89.32;98846.25;6147562;23;20569;-55
2022/10/25 01:22:15;;;;;;;3.37;1.10;;;;;;;14.11;89.81;98852.66;6147596;23;20603;-54
2022/10/25 01:25:08;;;;;;;3.93;1.07;;;;;;;14.14;88.22;98842.66;6176596;23;20205;-56
2022/10/25 01:27:55;;;;;;;4.20;1.30;;;;;;;14.21;86.88;98840.16;6174685;23;20270;-53
2022/10/25 01:30:23;;;;;;;6.77;1.40;;;;;;;14.19;88.73;98839.50;6174006;23;20204;-53
2022/10/25 01:33:04;;;;;;;4.67;1.30;;;;;;;14.17;87.61;98842.31;6177003;23;20214;-55
2022/10/25 01:35:32;;;;;;;6.90;1.47;;;;;;;14.27;87.24;98838.69;6174174;23;20200;-55
2022/10/25 01:38:31;;;;;;;5.43;1.30;;;;;;;14.37;85.17;98836.66;6173586;23;20538;-53
2022/10/25 01:41:09;;;;;;;4.80;0.80;;;;;;;14.30;85.64;98839.16;6177265;23;20204;-53
2022/10/25 01:43:48;;;;;;;3.90;1.30;;;;;;;14.22;85.96;98835.75;6173910;23;20206;-56
2022/10/25 01:46:20;;;;;;;8.67;1.60;;;;;;;14.13;88.74;98840.19;6173675;23;20196;-54
2022/10/25 01:48:55;;;;;;;2.10;1.13;;;;;;;14.19;86.42;98844.75;6177541;23;20203;-55
2022/10/25 01:51:22;;;;;;;3.67;1.10;;;;;;;14.12;87.34;98823.63;6173814;23;20208;-56
2022/10/25 01:53:50;;;;;;;7.20;1.87;;;;;;;14.12;87.18;98833.28;6176859;23;20246;-56
2022/10/25 01:56:25;;;;;;;6.63;1.73;;;;;;;14.12;87.45;98844.63;6173811;23;20197;-57
2022/10/25 01:59:08;;;;;;;4.30;1.03;;;;;;;14.09;87.56;98831.84;6177262;23;20200;-53
2022/10/25 02:01:43;;;;;;;3.90;0.97;;;;;;;14.10;86.93;98837.91;6147894;23;20589;-55
2022/10/25 02:04:23;;;;;;;7.00;2.03;;;;;;;13.98;88.58;98843.50;6173323;23;20200;-53
2022/10/25 02:06:58;;;;;;;4.73;1.40;;;;;;;13.92;89.81;98840.72;6177208;23;20210;-52
2022/10/25 02:09:32;;;;;;;4.63;1.50;;;;;;;13.93;89.38;98840.56;6174282;23;20208;-53
2022/10/25 02:12:00;;;;;;;6.10;1.10;;;;;;;13.99;88.01;98836.47;6173588;23;20204;-52
2022/10/25 02:14:34;;;;;;;6.23;1.23;;;;;;;14.01;88.96;98848.41;6176992;23;20644;-52
2022/10/25 02:17:07;;;;;;;6.87;1.07;;;;;;;14.07;88.55;98830.34;6173542;23;20295;-53
2022/10/25 02:19:39;;;;;;;5.90;1.03;;;;;;;13.98;88.04;98835.63;6177245;23;20205;-54
2022/10/25 02:22:08;;;;;;;5.73;1.30;;;;;;;14.05;86.52;98842.81;6173233;23;20318;-53
2022/10/25 02:24:37;;;;;;;3.37;1.10;;;;;;;14.05;89.03;98827.91;6176784;23;20201;-56
2022/10/25 02:27:06;;;;;;;7.63;1.10;;;;;;;14.09;86.09;98833.63;6173193;23;20224;-55
2022/10/25 02:29:35;;;;;;;7.03;1.20;;;;;;;14.10;87.13;98830.00;6176302;23;20674;-54
2022/10/25 02:32:03;;;;;;;5.57;1.10;;;;;;;14.15;87.34;98830.34;6172235;23;20201;-56
2022/10/25 02:34:29;;;;;;;4.90;1.00;;;;;;;14.25;85.32;98830.16;6176693;23;20281;-55
2022/10/25 02:36:57;;;;;;;6.93;1.30;;;;;;;14.24;86.76;98833.75;6176940;23;20201;-53
2022/10/25 02:39:26;;;;;;;7.43;1.20;;;;;;;14.41;85.13;98831.88;6172233;23;20216;-52
2022/10/25 02:45:33;;;;;;;4.77;0.93;;;;;;;14.23;85.27;98830.31;6130022;23;20204;-53
2022/10/25 02:48:00;;;;;;;5.53;1.10;;;;;;;14.18;87.52;98830.00;6172881;23;20205;-54
2022/10/25 02:50:26;;;;;;;4.30;1.00;;;;;;;14.19;85.88;98834.25;6177033;23;20254;-55
2022/10/25 02:52:54;;;;;;;8.10;1.40;;;;;;;14.24;85.91;98841.66;6176152;23;20212;-53
2022/10/25 02:55:21;;;;;;;5.07;1.20;;;;;;;14.16;87.63;98837.22;6173119;23;20207;-53
2022/10/25 02:57:47;;;;;;;4.30;1.00;;;;;;;14.14;86.36;98840.03;6176650;23;20684;-53
2022/10/25 03:00:15;;;;;;;6.17;1.00;;;;;;;14.04;87.25;98836.78;6173207;23;20207;-53
2022/10/25 03:02:41;;;;;;;6.20;1.10;;;;;;;14.01;86.56;98835.28;6175964;23;20207;-55
2022/10/25 03:05:08;;;;;;;8.37;1.00;;;;;;;13.91;88.57;98831.22;6171822;23;20208;-55
2022/10/25 03:07:35;;;;;;;6.63;2.00;;;;;;;13.85;87.03;98830.06;6176528;23;20203;-55
2022/10/25 03:10:03;;;;;;;6.33;1.83;;;;;;;13.77;88.92;98830.13;6173296;23;20204;-53
2022/10/25 03:12:30;;;;;;;6.43;1.07;;;;;;;13.77;88.33;98828.28;6176723;23;20627;-55
2022/10/25 03:14:56;;;;;;;5.60;1.10;;;;;;;13.73;88.60;98829.59;6176423;23;20211;-55
2022/10/25 03:17:23;;;;;;;5.00;1.40;;;;;;;13.62;89.22;98833.41;6173096;23;20209;-55
2022/10/25 03:19:49;;;;;;;5.67;1.20;;;;;;;13.57;89.93;98833.09;6176376;23;20207;-54
2022/10/25 03:22:16;;;;;;;5.93;1.03;;;;;;;13.45;90.34;98831.78;6172747;23;20207;-56
2022/10/25 03:24:42;;;;;;;5.10;1.00;;;;;;;13.39;90.93;98828.78;6176292;23;20203;-55
2022/10/25 03:27:10;;;;;;;4.67;1.23;;;;;;;13.48;89.73;98831.44;6172807;23;20511;-56
2022/10/25 03:29:37;;;;;;;5.77;1.00;;;;;;;13.36;91.53;98828.28;6176526;23;20658;-53
2022/10/25 03:32:04;;;;;;;6.27;1.43;;;;;;;13.40;91.23;98835.66;6163188;23;20576;-55
2022/10/25 03:34:30;;;;;;;3.77;1.20;;;;;;;13.58;89.72;98837.34;6174972;23;20261;-54
2022/10/25 03:36:57;;;;;;;3.13;0.70;;;;;;;13.52;89.67;98835.38;6149815;23;20208;-54
2022/10/25 03:39:24;;;;;;;3.10;0.83;;;;;;;13.50;90.32;98838.16;6173240;23;20266;-54
2022/10/25 03:41:50;;;;;;;6.30;0.87;;;;;;;13.50;91.01;98843.38;6176463;23;20254;-55
2022/10/25 03:44:18;;;;;;;5.20;1.10;;;;;;;13.41;90.95;98836.47;6172457;23;20203;-56
2022/10/25 03:46:45;;;;;;;5.50;1.40;;;;;;;13.41;91.46;98842.59;6174551;23;20207;-57
2022/10/25 03:49:11;;;;;;;4.67;1.10;;;;;;;13.39;89.75;98846.31;6172516;23;20199;-56
2022/10/25 03:51:38;;;;;;;6.10;1.10;;;;;;;13.29;91.45;98846.47;6176030;23;20205;-56
2022/10/25 03:54:05;;;;;;;4.70;0.90;;;;;;;13.20;91.62;98842.22;6172156;23;20255;-56
2022/10/25 03:56:31;;;;;;;6.07;1.00;;;;;;;13.11;92.35;98847.44;6176170;23;20265;-57
2022/10/25 03:58:58;;;;;;;5.07;1.33;;;;;;;13.10;93.66;98851.03;6176175;23;20200;-56
2022/10/25 04:01:25;;;;;;;5.27;1.57;;;;;;;13.16;91.63;98849.59;6166571;23;20212;-56
2022/10/25 04:03:52;;;;;;;8.80;0.90;;;;;;;13.23;91.06;98855.81;6175764;23;20200;-56
2022/10/25 04:06:19;;;;;;;3.87;1.07;;;;;;;13.13;92.92;98852.53;6146093;23;20263;-56
2022/10/25 04:08:45;;;;;;;3.97;1.10;;;;;;;13.11;93.78;98850.06;6149616;23;20242;-57
2022/10/25 04:11:12;;;;;;;2.30;1.20;;;;;;;13.06;93.18;98849.72;6172295;23;20258;-57
2022/10/25 04:13:38;;;;;;;5.30;1.03;;;;;;;13.10;93.39;98845.00;6175591;23;20199;-56
2022/10/25 04:16:06;;;;;;;5.73;1.10;;;;;;;13.23;93.22;98841.88;6172280;23;20207;-56
2022/10/25 04:18:34;;;;;;;8.53;1.03;;;;;;;13.33;91.25;98855.66;6175652;23;20206;-57
2022/10/25 04:21:01;;;;;;;7.53;1.03;;;;;;;13.47;88.57;98845.53;6172200;23;20214;-56
2022/10/25 04:23:27;;;;;;;3.73;1.27;;;;;;;13.69;86.80;98850.13;6175619;23;20255;-59
2022/10/25 04:25:55;;;;;;;2.33;0.80;;;;;;;13.76;87.67;98850.25;6149669;23;20279;-58
2022/10/25 04:28:22;;;;;;;3.23;0.90;;;;;;;13.78;87.68;98850.13;6172425;23;20210;-59
2022/10/25 04:30:49;;;;;;;4.63;1.00;;;;;;;13.76;88.36;98852.88;6175626;23;20624;-57
2022/10/25 04:33:15;;;;;;;5.63;1.00;;;;;;;13.77;86.82;98853.72;6171956;23;20520;-58
2022/10/25 04:35:43;;;;;;;3.67;1.00;;;;;;;13.74;88.06;98862.72;6176025;23;20831;-57
2022/10/25 04:38:10;;;;;;;6.33;0.93;;;;;;;13.92;85.32;98852.03;6172014;23;20207;-59
2022/10/25 04:40:37;;;;;;;4.67;1.13;;;;;;;13.85;84.59;98854.53;6175762;23;20239;-58
2022/10/25 04:43:03;;;;;;;5.60;1.20;;;;;;;13.84;85.74;98857.28;6172015;23;20204;-58
2022/10/25 04:45:30;;;;;;;4.60;1.20;;;;;;;13.95;84.42;98859.56;6175752;23;20258;-58
2022/10/25 04:47:56;;;;;;;5.27;0.90;;;;;;;13.93;85.11;98858.91;6175653;23;20251;-58
2022/10/25 04:50:23;;;;;;;13.67;5.33;;;;;;;14.02;84.09;98860.53;6172038;23;20651;-59
2022/10/25 04:52:51;;;;;;;11.00;3.50;;;;;;;14.10;83.06;98853.63;6175385;23;20724;-59
2022/10/25 04:55:17;;;;;;;9.40;1.37;;;;;;;13.98;82.96;98861.06;6172145;23;20202;-58
2022/10/25 04:57:44;;;;;;;7.50;1.90;;;;;;;13.87;84.13;98851.72;6175854;23;20799;-59
2022/10/25 05:00:11;;;;;;;7.30;1.30;;;;;;;13.84;84.76;98849.41;6171640;23;20795;-58
2022/10/25 05:02:38;;;;;;;6.37;1.07;;;;;;;13.80;83.24;98863.84;6175474;23;20655;-58
2022/10/25 05:05:05;;;;;;;5.13;1.23;;;;;;;13.73;85.73;98868.97;6171845;23;20541;-59
2022/10/25 05:07:32;;;;;;;7.37;1.60;;;;;;;13.71;86.56;98866.50;6176026;23;20204;-59
2022/10/25 05:10:00;;;;;;;6.23;1.10;;;;;;;13.68;86.99;98869.47;6172062;23;20266;-58
2022/10/25 05:12:26;;;;;;;5.47;1.00;;;;;;;13.74;86.48;98873.22;6175525;23;20282;-59
2022/10/25 05:14:53;;;;;;;6.17;1.90;;;;;;;13.74;86.32;98873.22;6175444;23;20204;-59
2022/10/25 05:17:19;;;;;;;3.80;1.20;;;;;;;13.81;85.92;98876.81;6172495;23;20637;-59
2022/10/25 05:19:46;;;;;;;5.07;0.97;;;;;;;13.69;85.55;98865.88;6175645;23;20207;-58
2022/10/25 05:22:12;;;;;;;2.80;1.40;;;;;;;13.71;86.78;98866.50;6145772;23;20211;-59
2022/10/25 05:24:39;;;;;;;8.63;1.50;;;;;;;13.67;87.00;98880.09;6175730;23;20208;-58
2022/10/25 05:27:07;;;;;;;7.07;1.20;;;;;;;13.68;86.54;98877.34;6172376;23;20215;-58
2022/10/25 05:29:34;;;;;;;9.07;1.10;;;;;;;13.58;86.40;98879.31;6175783;23;20206;-58
2022/10/25 05:32:01;;;;;;;2.77;0.90;;;;;;;13.54;88.65;98878.00;6172171;23;20257;-59
2022/10/25 05:34:27;;;;;;;5.50;1.03;;;;;;;13.49;89.16;98870.59;6175371;23;20200;-59
2022/10/25 05:36:54;;;;;;;4.73;0.97;;;;;;;13.41;88.82;98875.81;6175857;23;20577;-58
2022/10/25 05:39:20;;;;;;;4.20;1.07;;;;;;;13.41;88.85;98874.06;6172313;23;20272;-57
2022/10/25 05:41:48;;;;;;;5.07;1.50;;;;;;;13.34;89.57;98878.28;6175813;23;20248;-59
2022/10/25 05:44:16;;;;;;;3.20;1.00;;;;;;;13.31;89.06;98875.13;6172198;23;20656;-59
2022/10/25 05:46:43;;;;;;;2.60;0.97;;;;;;;13.24;89.95;98874.97;6175030;23;20273;-59
2022/10/25 05:49:11;;;;;;;7.37;2.37;;;;;;;13.28;90.39;98884.16;6172289;23;20273;-57
2022/10/25 05:51:38;;;;;;;5.37;1.13;;;;;;;13.37;89.63;98887.59;6175701;23;20206;-59
2022/10/25 05:54:06;;;;;;;10.50;1.10;;;;;;;13.50;88.57;98893.22;6171422;23;20204;-58
2022/10/25 05:56:34;;;;;;;8.03;1.57;;;;;;;13.73;87.04;98882.91;6175413;23;20202;-58
2022/10/25 05:59:02;;;;;;;4.90;1.23;;;;;;;13.75;87.22;98881.94;6172127;23;20215;-58
2022/10/25 06:01:30;;;;;;;7.50;1.13;;;;;;;13.76;87.25;98888.81;6176602;23;20207;-58
2022/10/25 06:03:57;;;;;;;4.90;1.27;;;;;;;13.67;87.33;98888.81;6177166;23;20203;-58
2022/10/25 06:06:24;;;;;;;5.27;1.13;;;;;;;13.54;88.42;98894.53;6174746;23;20270;-58
2022/10/25 06:08:55;;;;;;;4.60;1.47;;;;;;;13.50;89.01;98887.97;6177287;23;20210;-59
2022/10/25 06:11:22;;;;;;;4.40;1.03;;;;;;;13.46;89.11;98897.16;6172279;23;20221;-59
2022/10/25 06:13:49;;;;;;;5.73;1.10;;;;;;;13.40;89.42;98889.91;6177377;23;20199;-59
2022/10/25 06:16:17;;;;;;;3.60;1.20;;;;;;;13.41;88.84;98895.03;6174120;23;20209;-58
2022/10/25 06:18:45;;;;;;;4.83;1.10;;;;;;;13.39;89.30;98891.72;6177470;23;20209;-58
2022/10/25 06:21:14;;;;;;;9.53;1.23;;;;;;;13.45;89.26;98898.13;6173758;23;20315;-58
2022/10/25 06:23:41;;;;;;;5.40;1.30;;;;;;;13.51;88.07;98891.44;6176786;23;20208;-59
2022/10/25 06:26:10;;;;;;;5.90;1.30;;;;;;;13.49;88.49;98907.31;6173943;23;20214;-59
2022/10/25 06:28:37;;;;;;;7.47;1.50;;;;;;;13.51;88.06;98904.53;6177484;23;20295;-59
2022/10/25 06:31:05;;;;;;;8.37;1.13;;;;;;;13.57;88.46;98912.56;6173768;23;20515;-58
2022/10/25 06:33:33;;;;;;;10.20;2.03;;;;;;;13.54;87.57;98907.66;6177311;23;20199;-58
2022/10/25 06:36:03;;;;;;;5.40;1.40;;;;;;;13.51;88.22;98909.78;6173797;23;20207;-59
2022/10/25 06:38:30;;;;;;;4.40;1.10;;;;;;;13.48;88.90;98915.34;6177200;23;20201;-58
2022/10/25 06:41:00;;;;;;;4.70;1.20;;;;;;;13.46;89.85;98925.19;6177096;23;20577;-59
2022/10/25 06:43:27;;;;;;;7.30;2.40;;;;;;;13.55;88.86;98922.41;6173917;23;20204;-59
2022/10/25 06:45:54;;;;;;;10.63;2.03;;;;;;;13.63;88.21;98918.97;6177040;23;20204;-58
2022/10/25 06:48:21;;;;;;;7.53;2.00;;;;;;;13.67;88.82;98928.16;6173939;23;20724;-58
2022/10/25 06:50:48;;;;;;;6.40;1.83;;;;;;;13.63;88.12;98923.38;6176967;23;20664;-58
2022/10/25 06:53:16;;;;;;;3.53;1.00;;;;;;;13.62;88.77;98934.88;6172935;23;20230;-59
2022/10/25 06:55:45;;;;;;;3.73;1.40;;;;;;;13.71;88.91;98936.50;6176471;23;20530;-59
2022/10/25 06:58:11;;;;;;;11.17;1.80;;;;;;;13.70;88.01;98940.94;6173478;23;20824;-59
2022/10/25 07:00:38;;;;;;;7.53;1.30;;;;;;;13.73;88.70;98942.41;6176756;23;20273;-59
2022/10/25 07:03:04;;;;;;;7.77;1.30;;;;;;;13.81;90.04;98937.16;6171912;23;20196;-59
2022/10/25 07:05:31;;;;;;;7.00;1.07;;;;;;;13.83;90.36;98950.94;6176320;23;20194;-58
2022/10/25 07:07:57;;;;;;;4.80;1.23;;;;;;;13.86;87.82;98947.16;6175623;23;20307;-59
2022/10/25 07:10:25;;;;;;;11.67;2.23;;;;;;;13.87;87.99;98941.75;6173364;23;20207;-58
2022/10/25 07:12:52;;;;;;;4.67;1.60;;;;;;;13.85;89.71;98943.72;6176207;23;20226;-59
2022/10/25 07:15:19;;;;;;;5.93;1.47;;;;;;;13.85;88.91;98945.53;6173092;23;23486;-59
2022/10/25 07:17:48;;;;;;;9.37;2.27;;;;;;;13.90;88.81;98945.84;6175654;23;20578;-59
2022/10/25 07:20:14;;;;;;;0.00;0.00;;;;;;;13.93;87.52;98948.16;6173054;23;20681;-59
2022/10/25 07:22:41;;;;;;;0.00;0.00;;;;;;;14.04;86.39;98957.50;6176739;23;20577;-58
2022/10/25 07:25:09;;;;;;;0.00;0.00;;;;;;;14.08;86.30;98960.59;6172309;23;20204;-60
2022/10/25 07:27:37;;;;;;;0.00;0.00;;;;;;;14.10;85.94;98974.38;6175455;23;20257;-59
2022/10/25 07:30:04;;;;;;;0.00;0.00;;;;;;;14.08;87.28;98964.06;6171555;23;20200;-59
2022/10/25 07:32:31;;;;;;;0.00;0.00;;;;;;;14.07;87.27;98965.06;6177726;23;20207;-59
2022/10/25 07:34:57;;;;;;;0.00;0.00;;;;;;;14.09;87.87;98964.88;6175771;23;20258;-59
2022/10/25 07:37:24;;;;;;;0.00;0.00;;;;;;;14.10;86.41;98964.72;6171122;23;20211;-60
2022/10/25 07:39:51;;;;;;;0.00;0.00;;;;;;;14.19;85.35;98962.91;6176305;23;20231;-59
2022/10/25 07:42:17;;;;;;;0.00;0.00;;;;;;;14.08;86.64;98966.69;6172882;23;20208;-59
2022/10/25 07:44:45;;;;;;;0.00;0.00;;;;;;;14.03;86.57;98964.53;6177144;23;20233;-57
2022/10/25 07:47:12;;;;;;;0.00;0.00;;;;;;;13.96;87.59;98974.06;6173544;23;20212;-59
2022/10/25 07:49:38;;;;;;;0.00;0.00;;;;;;;13.93;87.95;98971.75;6176504;23;20207;-59
2022/10/25 07:52:05;;;;;;;0.00;0.00;;;;;;;13.91;87.61;98976.34;6172163;23;20224;-59
2022/10/25 07:54:32;;;;;;;0.00;0.00;;;;;;;13.98;87.83;98982.59;6175211;23;20253;-60
2022/10/25 07:57:00;;;;;;;0.00;0.00;;;;;;;13.99;87.23;98983.44;6176274;23;20204;-59
2022/10/25 07:59:26;;;;;;;0.00;0.00;;;;;;;14.02;87.47;98988.34;6145869;23;20218;-58
2022/10/25 08:01:54;;;;;;;0.00;0.00;;;;;;;14.09;87.33;98976.22;6175795;23;20654;-59
2022/10/25 08:04:21;;;;;;;0.00;0.00;;;;;;;14.20;85.50;98979.47;6172272;23;20602;-59
2022/10/25 08:06:47;;;;;;;0.00;0.00;;;;;;;14.28;86.51;98993.41;6175890;23;20198;-59
2022/10/25 08:09:14;;;;;;;0.00;0.00;;;;;;;14.29;86.27;98989.00;6171803;23;20208;-59
2022/10/25 08:11:40;;;;;;;0.00;0.00;;;;;;;14.23;86.00;98981.78;6171526;23;20682;-58
2022/10/25 08:14:07;;;;;;;0.00;0.00;;;;;;;14.32;84.69;98992.09;6170781;23;20238;-57
2022/10/25 08:16:34;;;;;;;0.00;0.00;;;;;;;14.47;82.81;98997.47;6175980;23;20282;-56
2022/10/25 08:19:02;;;;;;;0.00;0.00;;;;;;;14.52;84.08;98999.63;6172272;23;20207;-59
2022/10/25 08:21:28;;;;;;;0.00;0.00;;;;;;;14.52;83.24;98993.53;6175412;23;20213;-59
2022/10/25 08:23:55;;;;;;;0.00;0.00;;;;;;;14.53;83.48;98996.00;6175533;23;20201;-58
2022/10/25 08:26:25;;;;;;;0.00;0.00;;;;;;;14.57;83.61;98993.84;6173182;23;20213;-57
2022/10/25 08:28:51;;;;;;;0.00;0.00;;;;;;;14.54;82.81;99000.28;6175394;23;20232;-59
2022/10/25 08:31:18;;;;;;;0.00;0.00;;;;;;;14.51;84.10;98997.16;6170500;23;20211;-58
2022/10/25 08:33:45;;;;;;;0.00;0.00;;;;;;;14.49;83.00;98996.50;6175692;23;20254;-58
2022/10/25 08:36:13;;;;;;;0.00;0.00;;;;;;;14.43;84.09;98988.28;6172198;23;20850;-57
2022/10/25 08:38:39;;;;;;;0.00;0.00;;;;;;;14.42;83.76;98998.97;6174267;23;20687;-58
2022/10/25 08:41:13;;;;;;;0.00;0.00;;;;;;;14.49;84.59;98986.00;6172037;23;20208;-57
2022/10/25 08:44:16;;;;;;;0.00;0.00;;;;;;;14.67;82.74;98989.22;6175784;23;20672;-58
2022/10/25 08:46:45;;;;;;;0.00;0.00;;;;;;;14.78;81.83;98985.47;6148276;23;20204;-58
2022/10/25 08:49:19;;;;;;;0.00;0.00;;;;;;;14.95;80.96;98990.66;6172062;23;20789;-58
2022/10/25 08:51:49;;;;;;;0.00;0.00;;;;;;;15.17;79.03;98991.72;6175617;23;20211;-58
2022/10/25 08:54:27;;;;;;;0.00;0.00;;;;;;;15.46;79.43;98992.88;6171722;23;20205;-58
2022/10/25 08:57:04;;;;;;;0.00;0.00;;;;;;;15.74;76.87;98987.94;6175611;23;20205;-59
2022/10/25 08:59:35;;;;;;;0.00;0.00;;;;;;;15.86;76.90;98992.78;6172986;23;20234;-57
2022/10/25 09:02:02;;;;;;;0.00;0.00;;;;;;;15.75;76.00;98986.94;6166115;23;20268;-59
2022/10/25 09:04:30;;;;;;;0.00;0.00;;;;;;;15.76;75.63;98991.22;6167732;23;20259;-59
2022/10/25 09:07:07;;;;;;;0.00;0.00;;;;;;;15.83;76.46;98988.69;6174733;23;20260;-59
2022/10/25 09:09:42;;;;;;;0.00;0.00;;;;;;;15.86;73.84;98998.06;6170059;23;20313;-58
2022/10/25 09:12:20;;;;;;;0.00;0.00;;;;;;;15.87;75.89;98989.19;6171533;23;20298;-56
2022/10/25 09:14:52;;;;;;;0.00;0.00;;;;;;;15.87;74.31;98995.28;6175097;23;20201;-58
2022/10/25 09:17:20;;;;;;;0.00;0.00;;;;;;;15.65;76.32;98989.78;6171744;23;23131;-57
2022/10/25 09:20:02;;;;;;;0.00;0.00;;;;;;;15.76;76.03;98993.84;6175043;23;20197;-58
2022/10/25 09:22:31;;;;;;;0.00;0.00;;;;;;;15.83;75.55;98999.22;6172392;23;20208;-58
2022/10/25 09:25:01;;;;;;;0.00;0.00;;;;;;;15.91;73.66;98998.34;6174532;23;20203;-59
2022/10/25 09:27:34;;;;;;;0.00;0.00;;;;;;;16.13;75.27;99003.78;6171838;23;20258;-57
2022/10/25 09:30:04;;;;;;;0.00;0.00;;;;;;;16.38;72.98;99004.41;6171807;23;20226;-58
2022/10/25 09:32:38;;;;;;;0.00;0.00;;;;;;;16.72;70.87;99005.69;6175210;23;20210;-57
2022/10/25 09:35:14;;;;;;;0.00;0.00;;;;;;;16.76;68.89;99006.16;6171973;23;20209;-57
2022/10/25 09:37:47;;;;;;;0.00;0.00;;;;;;;16.43;72.19;99004.66;6176866;23;20574;-58
2022/10/25 09:40:18;;;;;;;0.00;0.00;;;;;;;16.37;71.62;99000.94;6173857;23;20209;-57
2022/10/25 09:42:50;;;;;;;0.00;0.00;;;;;;;16.43;71.45;99002.03;6177092;23;20211;-59
2022/10/25 09:45:21;;;;;;;0.00;0.00;;;;;;;16.30;71.57;98994.75;6173622;23;20672;-58
2022/10/25 09:47:56;;;;;;;0.00;0.00;;;;;;;16.26;72.29;98990.03;6177375;23;20458;-59
2022/10/25 09:50:27;;;;;;;0.00;0.00;;;;;;;16.24;71.99;98998.09;6174233;23;20208;-59
2022/10/25 09:53:07;;;;;;;0.00;0.00;;;;;;;16.17;72.65;98984.84;6149541;23;20201;-59
2022/10/25 09:55:39;;;;;;;0.00;0.00;;;;;;;16.15;73.44;98984.19;6174427;23;20210;-59
2022/10/25 09:58:08;;;;;;;0.00;0.00;;;;;;;16.16;73.39;98982.34;6173046;23;20206;-58
2022/10/25 10:00:39;;;;;;;0.00;0.00;;;;;;;16.11;76.29;98985.53;6166460;23;20217;-58
2022/10/25 10:03:08;;;;;;;0.00;0.00;;;;;;;15.99;76.67;98986.97;6167491;23;20212;-57
2022/10/25 10:05:38;;;;;;;0.00;0.00;;;;;;;15.98;76.75;98983.50;6171848;23;20257;-58
2022/10/25 10:08:10;;;;;;;0.00;0.00;;;;;;;15.98;77.76;98980.84;6136276;23;20208;-58
2022/10/25 10:10:40;;;;;;;0.00;0.00;;;;;;;16.02;78.05;98976.88;6125889;23;20900;-58
2022/10/25 10:13:14;;;;;;;0.00;0.00;;;;;;;16.07;76.50;98976.34;6166280;23;20570;-59
2022/10/25 10:15:49;;;;;;;0.00;0.00;;;;;;;16.02;81.54;98983.97;6145729;23;20205;-58
2022/10/25 10:18:34;;;;;;;0.00;0.00;;;;;;;16.04;79.05;98989.88;6168544;23;20538;-58
2022/10/25 10:21:05;;;;;;;0.00;0.00;;;;;;;15.95;79.78;98983.84;6167791;23;20209;-59
2022/10/25 10:23:37;;;;;;;0.00;0.00;;;;;;;16.10;78.04;98989.16;6165229;23;20209;-58
2022/10/25 10:26:11;;;;;;;0.00;0.00;;;;;;;16.14;78.98;98990.44;6167598;23;20268;-58
2022/10/25 10:28:43;;;;;;;0.00;0.00;;;;;;;16.15;79.07;98980.72;6171420;23;20235;-58
2022/10/25 10:31:10;;;;;;;0.00;0.00;;;;;;;16.22;77.87;98973.75;6167923;23;20221;-59
2022/10/25 10:33:38;;;;;;;0.00;0.00;;;;;;;16.33;76.98;98969.88;6171258;23;20202;-59
2022/10/25 10:36:23;;;;;;;0.00;0.00;;;;;;;16.29;78.83;98965.97;6156056;23;20220;-58
2022/10/25 10:38:51;;;;;;;0.00;0.00;;;;;;;16.37;78.33;98963.25;6170324;23;20201;-58
2022/10/25 10:41:24;;;;;;;0.00;0.00;;;;;;;16.47;78.61;98957.69;6167571;23;20591;-58
2022/10/25 10:43:51;;;;;;;0.00;0.00;;;;;;;16.47;81.56;98962.97;6171138;23;20312;-58
2022/10/25 10:46:22;;;;;;;0.00;0.00;;;;;;;16.44;79.42;98958.88;6166933;23;20205;-57
2022/10/25 10:48:55;;;;;;;0.00;0.00;;;;;;;16.56;77.35;98961.88;6170713;23;20212;-57
2022/10/25 10:51:36;;;;;;;0.00;0.00;;;;;;;16.59;77.85;98969.44;6166022;23;20214;-58
2022/10/25 10:54:30;;;;;;;0.00;0.00;;;;;;;16.64;76.72;98967.06;6146344;23;20217;-57
2022/10/25 10:56:59;;;;;;;0.00;0.00;;;;;;;16.75;76.33;98964.97;6134781;23;20210;-58
2022/10/25 10:59:39;;;;;;;0.00;0.00;;;;;;;16.73;76.11;98965.16;6168219;23;20267;-59
2022/10/25 11:02:24;;;;;;;0.00;0.00;;;;;;;16.79;76.17;98955.72;6152191;23;20268;-59
2022/10/25 11:04:53;;;;;;;0.00;0.00;;;;;;;16.80;75.69;98966.06;6163172;23;20288;-59
2022/10/25 11:07:31;;;;;;;0.00;0.00;;;;;;;16.71;76.21;98966.34;6030538;23;20204;-59
2022/10/25 11:10:21;;;;;;;0.00;0.00;;;;;;;16.73;77.68;98970.41;6167785;23;20208;-56
2022/10/25 11:13:05;;;;;;;0.00;0.00;;;;;;;16.88;77.41;98965.16;6165931;23;20210;-58
2022/10/25 11:15:44;;;;;;;0.00;0.00;;;;;;;16.93;75.81;98968.06;6167908;23;20214;-58
2022/10/25 11:18:13;;;;;;;0.00;0.00;;;;;;;17.31;74.99;98968.91;6168842;23;20661;-57
2022/10/25 11:20:49;;;;;;;0.00;0.00;;;;;;;17.40;73.39;98962.53;6166563;23;20273;-59
2022/10/25 11:23:26;;;;;;;0.00;0.00;;;;;;;17.42;72.34;98963.16;6150065;23;20525;-59
2022/10/25 11:26:01;;;;;;;0.00;0.00;;;;;;;17.57;74.18;98960.44;6171567;23;20276;-58
2022/10/25 11:28:41;;;;;;;0.00;0.00;;;;;;;17.74;72.42;98958.38;6168551;23;20211;-58
2022/10/25 11:31:20;;;;;;;0.00;0.00;;;;;;;17.64;73.11;98957.88;6167433;23;20207;-59
2022/10/25 11:34:03;;;;;;;0.00;0.00;;;;;;;17.37;74.97;98962.88;6171253;23;20203;-58
2022/10/25 11:36:42;;;;;;;0.00;0.00;;;;;;;17.36;73.21;98964.72;6168064;23;20539;-59
2022/10/25 11:39:24;;;;;;;0.00;0.00;;;;;;;17.25;73.39;98954.66;6168010;23;20307;-58
2022/10/25 11:41:58;;;;;;;0.00;0.00;;;;;;;17.14;74.98;98950.66;6171168;23;20218;-57
2022/10/25 11:44:46;;;;;;;0.00;0.00;;;;;;;17.08;76.50;98965.41;6166926;23;20285;-58
2022/10/25 11:47:25;;;;;;;0.00;0.00;;;;;;;17.03;75.80;98961.69;6167283;23;20246;-60
2022/10/25 11:50:03;;;;;;;0.00;0.00;;;;;;;16.89;76.22;98948.34;6170778;23;20212;-58
2022/10/25 11:53:05;;;;;;;0.00;0.00;;;;;;;16.99;76.81;98953.34;6167620;23;20214;-56